Kavarna, Bulgaria
Current Conditions -  °F | °C
As of 11:30 AM on Sunday 23 Nov 2014 (Local Time) from LBWN Reporting Station
Broken Clouds Broken Clouds  
Wind Chill: 33°   Ceiling: 4900
Heat Index: 39°   Visibility: 6mi
Dew Point: 36°   Wind: 9mph
Humidity: 87%   Direction: 350°N
Pressure: 30.39"   Gusts: NA
Location:  43.44°N, 28.34°E
Report Text: LBWN 230830Z 35004MPS 9999 BKN049 04/02 Q1029 NOSIG
Loading
Personal Weather Stations






























Interactive Weather Map New forecast layout! Learn more

10-Day Weather Forecast

Advertisements
Track Severe Weather on mobile